Currently 55°F in Simi Valley, California, USA
55°F
64°F / 55°F
3 mph W
0.00"
Sunday, May 3, 2026 10:40 PM PDT

Simi Valley, California Weather Summary
Last 36 Hours

Temperature Winds Hourly Humidity Dewpoint
Time Report Norm Report Norm Max Gusts Precip. Rpt. Norm Rpt. Norm Pressure
1Sun 10:40 PM  55.3°F  59°F  3 mph W  2 mph  7 mph  0.00"  82%  66%  50°F  48°F  29.93"
Sun 10:00 PM  55.5°F  60°F  7 mph NW  2 mph  9 mph  0.00"  82%  65%  50°F  48°F  29.94"
Sun 09:00 PM  56.7°F  62°F  3 mph W  2 mph  8 mph  0.00"  81%  63%  51°F  49°F  29.92"
Sun 08:00 PM  56.8°F  65°F  3 mph W  3 mph  16 mph  0.00"  81%  59%  51°F  50°F  29.90"
Sun 07:00 PM  58.1°F  69°F  6 mph W  4 mph  17 mph  0.00"  75%  52%  50°F  50°F  29.89"
Sun 06:00 PM  61.6°F  71°F  5 mph SW  6 mph  11 mph  0.00"  67%  48%  50°F  50°F  29.87"
Sun 05:00 PM  62.5°F  72°F  5 mph W  6 mph  12 mph  0.00"  65%  47%  50°F  50°F  29.86"
2Sun 04:22 PM  63.9°F  73°F  6 mph W  7 mph  8 mph  ----  63%  46%  51°F  50°F  29.87"
Sun 04:00 PM  61.8°F  73°F  6 mph NW  7 mph  11 mph  0.00"  66%  45%  50°F  50°F  29.88"
Sun 03:00 PM  60.2°F  74°F  6 mph W  7 mph  10 mph  0.00"  72%  44%  51°F  50°F  29.90"
Sun 02:00 PM  59.1°F  74°F  6 mph W  7 mph  14 mph  0.00"  76%  45%  51°F  51°F  29.91"
Sun 01:00 PM  60.1°F  74°F  4 mph NW  6 mph  9 mph  0.00"  76%  45%  52°F  51°F  29.91"
Sun 12:00 PM  57.8°F  73°F  1 mph NW  6 mph  5 mph  0.00"  89%  46%  55°F  50°F  29.92"
Sun 11:00 AM  56.3°F  70°F  2 mph NW  5 mph  8 mph  0.00"  92%  50%  54°F  50°F  29.93"
Sun 10:00 AM  55.5°F  67°F  3 mph W  4 mph  8 mph  0.00"  93%  56%  53°F  50°F  29.93"
3Sun 09:50 AM  55.2°F  66°F  4 mph NW  4 mph  8 mph  ----  93%  57%  53°F  50°F  29.92"
Sun 09:00 AM  56.8°F  63°F  4 mph SW  3 mph  6 mph  0.00"  87%  64%  53°F  50°F  29.91"
Sun 08:00 AM  57.3°F  59°F  2 mph SE  2 mph  7 mph  0.00"  83%  70%  52°F  49°F  29.90"
Sun 07:00 AM  57.4°F  55°F  4 mph SE  2 mph  8 mph  0.00"  84%  72%  52°F  46°F  29.88"
Sun 06:00 AM  56.8°F  55°F  2 mph E  2 mph  6 mph  0.00"  87%  72%  53°F  45°F  29.86"
Sun 05:00 AM  56.6°F  55°F  1 mph E  2 mph  7 mph  0.00"  90%  71%  54°F  45°F  29.87"
Sun 04:00 AM  57.0°F  56°F  calm  2 mph  3 mph  0.00"  92%  70%  55°F  46°F  29.87"
Sun 03:00 AM  56.3°F  56°F  calm  2 mph  7 mph  0.00"  93%  70%  54°F  46°F  29.87"
Sun 02:00 AM  57.1°F  57°F  3 mph W  2 mph  8 mph  0.00"  93%  69%  55°F  46°F  29.88"
Sun 01:00 AM  57.5°F  57°F  3 mph W  2 mph  6 mph  0.00"  90%  68%  54°F  47°F  29.88"
Sun 12:00 AM  56.6°F  58°F  3 mph N  2 mph  7 mph  0.00"  89%  67%  53°F  47°F  29.86"
Sat 11:00 PM  57.2°F  59°F  4 mph W  2 mph  6 mph  0.00"  85%  66%  53°F  47°F  29.86"
Sat 10:00 PM  59.6°F  60°F  3 mph W  2 mph  7 mph  0.00"  83%  64%  54°F  48°F  29.85"
Sat 09:00 PM  61.3°F  62°F  3 mph W  2 mph  8 mph  0.00"  80%  62%  55°F  49°F  29.83"
Sat 08:00 PM  64.7°F  65°F  3 mph W  3 mph  11 mph  0.00"  73%  58%  55°F  50°F  29.81"
Sat 07:00 PM  70.1°F  69°F  4 mph W  5 mph  none  0.00"  62%  52%  56°F  50°F  29.79"
Sat 06:00 PM  74.8°F  71°F  2 mph W  6 mph  9 mph  0.00"  55%  48%  57°F  50°F  29.79"
Sat 05:00 PM  75.0°F  72°F  5 mph SW  7 mph  11 mph  0.00"  54%  46%  57°F  50°F  29.79"
Sat 04:00 PM  74.2°F  74°F  8 mph SW  7 mph  14 mph  0.00"  56%  44%  57°F  50°F  29.81"
Sat 03:00 PM  75.3°F  74°F  7 mph W  7 mph  16 mph  0.00"  54%  44%  57°F  50°F  29.84"
Sat 02:00 PM  76.0°F  75°F  5 mph SW  7 mph  16 mph  0.00"  52%  44%  57°F  50°F  29.86"
Sat 01:00 PM  74.8°F  74°F  2 mph SW  6 mph  13 mph  0.00"  56%  44%  57°F  50°F  29.88"
Sat 12:00 PM  72.0°F  73°F  4 mph W  6 mph  9 mph  0.00"  58%  46%  56°F  50°F  29.91"
Sat 11:00 AM  67.2°F  70°F  calm  5 mph  7 mph  0.00"  71%  49%  57°F  50°F  29.92"

  1. Current weather data. No green row appears if the current weather data is also the high or low for the current day.
  2. High temperature for the current day.
  3. Low temperature for the current day.

The Simi Valley, California weather pages are a service of WeatherCurrents.
Copyright ©Sun May 03 22:40:35 PDT 2026  WeatherCurrents. All rights reserved. - Submit questions and comments - Privacy Policy

This page automatically refreshes every 10 minutes.